Spray, Oregon
Current Conditions -  °F | °C
As of 2:55 AM on Thursday 23 Oct 2014 (Local Time) from KGCD Reporting Station
Broken Clouds Broken Clouds  
Wind Chill: 58°   Ceiling: 9500
Heat Index: 58°   Visibility: 10mi
Dew Point: 41°   Wind: 21mph
Humidity: 54%   Direction: 170°S
Pressure: 29.89"   Gusts: 26mph
Location:  44.83°N, 119.79°W
Report Text: KGCD 230955Z AUTO 17018G23KT 10SM BKN095 BKN120 14/05 A2989 RMK AO2 T01420049
Loading
Personal Weather Stations






























Interactive Weather Map
Tropical Storm Tracking
New forecast layout! Learn more

10-Day Weather Forecast

Advertisements
Track Severe Weather on mobile